KSEG/SEG METAR and TAF weather

Enter ICAO airport designator
Station Type Date Time Source
KSEG METAR 2019/06/16 03:53 UTC NOAA

KSEG 160353Z AUTO 00000KT 10SM -RA SCT065 OVC090 18/16 A2994 RMK AO2 RAB53 SLP134 P0000 T01830161


Station Type Date Time Source
KSEG Decoded METAR 2019/06/16 03:53 UTC NOAA

SELINSGROVE PENN VALLEY AIRPORT , PA, United States (KSEG) 40-49N 076-52W 134M
Jun 15, 2019 - 11:53 PM EDT / 2019.06.16 0353 UTC
Wind: Calm:0
Visibility: 10 mile(s):0
Sky conditions: overcast
Weather: light rain
Precipitation last hour: A trace
Temperature: 64.9 F (18.3 C)
Dew Point: 61.0 F (16.1 C)
Relative Humidity: 86%
Pressure (altimeter): 29.94 in. Hg (1013 hPa)
ob: KSEG 160353Z AUTO 00000KT 10SM -RA SCT065 OVC090 18/16 A2994 RMK AO2 RAB53 SLP134 P0000 T01830161
cycle: 4

Station Type Date Time Source
KSEG TAF UTC NOAA

Error!

Example: see airport list